sensor_id;sensor_type;location;lat;lon;timestamp;pressure;altitude;pressure_sealevel;temperature;humidity
32251;BME280;41295;48.518;9.206;2023-05-24T00:01:47;97463.41;;;16.58;59.58
32251;BME280;41295;48.518;9.206;2023-05-24T00:03:50;97457.31;;;16.58;59.56
32251;BME280;41295;48.518;9.206;2023-05-24T00:05:53;97460.88;;;16.57;59.50
32251;BME280;41295;48.518;9.206;2023-05-24T00:07:56;97461.41;;;16.47;59.72
32251;BME280;41295;48.518;9.206;2023-05-24T00:09:59;97456.09;;;16.49;59.94
32251;BME280;41295;48.518;9.206;2023-05-24T00:12:02;97455.13;;;16.50;59.73
32251;BME280;41295;48.518;9.206;2023-05-24T00:14:06;97456.00;;;16.51;59.64
32251;BME280;41295;48.518;9.206;2023-05-24T00:16:09;97453.34;;;16.51;59.40
32251;BME280;41295;48.518;9.206;2023-05-24T00:18:12;97458.72;;;16.49;59.70
32251;BME280;41295;48.518;9.206;2023-05-24T00:20:14;97451.84;;;16.46;59.48
32251;BME280;41295;48.518;9.206;2023-05-24T00:22:17;97449.22;;;16.46;59.75
32251;BME280;41295;48.518;9.206;2023-05-24T00:24:21;97451.94;;;16.45;59.89
32251;BME280;41295;48.518;9.206;2023-05-24T00:26:24;97447.59;;;16.44;59.93
32251;BME280;41295;48.518;9.206;2023-05-24T00:28:27;97448.53;;;16.43;60.10
32251;BME280;41295;48.518;9.206;2023-05-24T00:30:31;97455.56;;;16.42;60.24
32251;BME280;41295;48.518;9.206;2023-05-24T00:32:33;97445.06;;;16.42;60.04
32251;BME280;41295;48.518;9.206;2023-05-24T00:34:36;97440.72;;;16.41;59.81
32251;BME280;41295;48.518;9.206;2023-05-24T00:36:39;97449.56;;;16.40;59.73
32251;BME280;41295;48.518;9.206;2023-05-24T00:38:41;97447.88;;;16.39;59.64
32251;BME280;41295;48.518;9.206;2023-05-24T00:40:44;97446.09;;;16.40;59.70
32251;BME280;41295;48.518;9.206;2023-05-24T00:42:47;97447.88;;;16.39;59.56
32251;BME280;41295;48.518;9.206;2023-05-24T00:44:49;97441.75;;;16.39;59.62
32251;BME280;41295;48.518;9.206;2023-05-24T00:46:53;97436.50;;;16.39;59.63
32251;BME280;41295;48.518;9.206;2023-05-24T00:48:56;97430.41;;;16.38;59.66
32251;BME280;41295;48.518;9.206;2023-05-24T00:50:59;97434.81;;;16.38;59.89
32251;BME280;41295;48.518;9.206;2023-05-24T00:53:03;97435.75;;;16.37;59.88
32251;BME280;41295;48.518;9.206;2023-05-24T00:55:06;97430.56;;;16.35;59.72
32251;BME280;41295;48.518;9.206;2023-05-24T00:57:10;97427.09;;;16.34;59.92
32251;BME280;41295;48.518;9.206;2023-05-24T00:59:14;97424.63;;;16.31;59.96
32251;BME280;41295;48.518;9.206;2023-05-24T01:01:17;97421.16;;;16.31;59.77
32251;BME280;41295;48.518;9.206;2023-05-24T01:03:21;97419.47;;;16.30;59.58
32251;BME280;41295;48.518;9.206;2023-05-24T01:05:24;97421.25;;;16.29;59.66
32251;BME280;41295;48.518;9.206;2023-05-24T01:07:32;97415.34;;;16.26;59.70
32251;BME280;41295;48.518;9.206;2023-05-24T01:09:49;97424.25;;;16.23;59.85
32251;BME280;41295;48.518;9.206;2023-05-24T01:12:06;97424.25;;;16.23;59.76
32251;BME280;41295;48.518;9.206;2023-05-24T01:14:17;97427.81;;;16.22;59.73
32251;BME280;41295;48.518;9.206;2023-05-24T01:16:28;97441.06;;;16.20;59.58
32251;BME280;41295;48.518;9.206;2023-05-24T01:18:38;97433.19;;;16.20;59.74
32251;BME280;41295;48.518;9.206;2023-05-24T01:20:43;97434.19;;;16.18;59.64
32251;BME280;41295;48.518;9.206;2023-05-24T01:23:18;97435.19;;;16.15;59.45
32251;BME280;41295;48.518;9.206;2023-05-24T01:27:53;97431.16;;;16.09;59.28
32251;BME280;41295;48.518;9.206;2023-05-24T01:29:56;97435.47;;;16.10;59.38
32251;BME280;41295;48.518;9.206;2023-05-24T01:32:01;97434.72;;;16.08;59.53
32251;BME280;41295;48.518;9.206;2023-05-24T01:34:03;97439.97;;;16.08;59.35
32251;BME280;41295;48.518;9.206;2023-05-24T01:36:06;97433.94;;;16.06;59.28
32251;BME280;41295;48.518;9.206;2023-05-24T01:38:09;97434.56;;;15.95;58.19
32251;BME280;41295;48.518;9.206;2023-05-24T01:40:12;97435.38;;;15.96;59.19
32251;BME280;41295;48.518;9.206;2023-05-24T01:42:23;97439.06;;;15.93;59.45
32251;BME280;41295;48.518;9.206;2023-05-24T01:44:33;97442.09;;;15.85;58.16
32251;BME280;41295;48.518;9.206;2023-05-24T01:46:37;97440.44;;;15.84;59.25
32251;BME280;41295;48.518;9.206;2023-05-24T01:48:51;97429.81;;;15.86;59.42
32251;BME280;41295;48.518;9.206;2023-05-24T01:50:57;97428.03;;;15.86;59.41
32251;BME280;41295;48.518;9.206;2023-05-24T01:53:03;97437.63;;;15.87;59.28
32251;BME280;41295;48.518;9.206;2023-05-24T01:55:07;97432.25;;;15.89;59.08
32251;BME280;41295;48.518;9.206;2023-05-24T01:57:11;97440.16;;;15.89;58.94
32251;BME280;41295;48.518;9.206;2023-05-24T01:59:14;97441.00;;;15.90;59.19
32251;BME280;41295;48.518;9.206;2023-05-24T02:01:18;97431.34;;;15.90;59.26
32251;BME280;41295;48.518;9.206;2023-05-24T02:03:21;97436.50;;;15.92;59.24
32251;BME280;41295;48.518;9.206;2023-05-24T02:05:24;97430.41;;;15.91;59.33
32251;BME280;41295;48.518;9.206;2023-05-24T02:07:27;97441.78;;;15.92;59.37
32251;BME280;41295;48.518;9.206;2023-05-24T02:09:29;97432.94;;;15.93;59.67
32251;BME280;41295;48.518;9.206;2023-05-24T02:11:32;97422.41;;;15.93;59.49
32251;BME280;41295;48.518;9.206;2023-05-24T02:13:35;97424.97;;;15.94;59.25
32251;BME280;41295;48.518;9.206;2023-05-24T02:15:37;97421.56;;;15.92;59.42
32251;BME280;41295;48.518;9.206;2023-05-24T02:17:43;97424.28;;;15.91;59.43
32251;BME280;41295;48.518;9.206;2023-05-24T02:19:46;97423.47;;;15.90;59.59
32251;BME280;41295;48.518;9.206;2023-05-24T02:21:49;97425.22;;;15.90;59.52
32251;BME280;41295;48.518;9.206;2023-05-24T02:23:51;97434.13;;;15.87;59.61
32251;BME280;41295;48.518;9.206;2023-05-24T02:25:54;97431.59;;;15.85;59.67
32251;BME280;41295;48.518;9.206;2023-05-24T02:27:58;97435.16;;;15.84;59.84
32251;BME280;41295;48.518;9.206;2023-05-24T02:30:00;97422.94;;;15.83;60.00
32251;BME280;41295;48.518;9.206;2023-05-24T02:32:03;97434.41;;;15.82;59.74
32251;BME280;41295;48.518;9.206;2023-05-24T02:34:07;97431.78;;;15.82;59.57
32251;BME280;41295;48.518;9.206;2023-05-24T02:36:10;97426.59;;;15.81;58.82
32251;BME280;41295;48.518;9.206;2023-05-24T02:38:13;97429.31;;;15.79;58.07
32251;BME280;41295;48.518;9.206;2023-05-24T02:40:15;97425.94;;;15.77;57.75
32251;BME280;41295;48.518;9.206;2023-05-24T02:42:18;97428.56;;;15.77;57.20
32251;BME280;41295;48.518;9.206;2023-05-24T02:44:21;97431.28;;;15.75;56.90
32251;BME280;41295;48.518;9.206;2023-05-24T02:46:24;97434.81;;;15.74;56.19
32251;BME280;41295;48.518;9.206;2023-05-24T02:48:26;97434.00;;;15.74;55.56
32251;BME280;41295;48.518;9.206;2023-05-24T02:50:30;97431.53;;;15.71;55.34
32251;BME280;41295;48.518;9.206;2023-05-24T02:52:33;97432.47;;;15.70;54.88
32251;BME280;41295;48.518;9.206;2023-05-24T02:54:37;97433.56;;;15.66;54.73
32251;BME280;41295;48.518;9.206;2023-05-24T02:56:39;97425.75;;;15.64;54.71
32251;BME280;41295;48.518;9.206;2023-05-24T02:58:42;97430.16;;;15.63;54.71
32251;BME280;41295;48.518;9.206;2023-05-24T03:00:45;97431.13;;;15.62;54.59
32251;BME280;41295;48.518;9.206;2023-05-24T03:02:48;97430.44;;;15.59;55.09
32251;BME280;41295;48.518;9.206;2023-05-24T03:04:53;97423.50;;;15.58;54.88
32251;BME280;41295;48.518;9.206;2023-05-24T03:06:57;97427.91;;;15.57;54.75
32251;BME280;41295;48.518;9.206;2023-05-24T03:08:59;97427.97;;;15.56;54.87
32251;BME280;41295;48.518;9.206;2023-05-24T03:11:02;97426.28;;;15.55;54.54
32251;BME280;41295;48.518;9.206;2023-05-24T03:13:05;97429.00;;;15.53;54.68
32251;BME280;41295;48.518;9.206;2023-05-24T03:15:08;97433.41;;;15.53;54.43
32251;BME280;41295;48.518;9.206;2023-05-24T03:17:11;97431.69;;;15.51;54.54
32251;BME280;41295;48.518;9.206;2023-05-24T03:19:14;97434.91;;;15.41;54.83
32251;BME280;41295;48.518;9.206;2023-05-24T03:21:18;97438.50;;;15.39;55.03
32251;BME280;41295;48.518;9.206;2023-05-24T03:23:22;97438.50;;;15.39;55.12
32251;BME280;41295;48.518;9.206;2023-05-24T03:25:25;97443.75;;;15.39;55.17
32251;BME280;41295;48.518;9.206;2023-05-24T03:27:28;97442.03;;;15.38;55.11
32251;BME280;41295;48.518;9.206;2023-05-24T03:29:30;97440.34;;;15.37;54.85
32251;BME280;41295;48.518;9.206;2023-05-24T03:31:33;97432.66;;;15.34;55.16
32251;BME280;41295;48.518;9.206;2023-05-24T03:33:36;97437.13;;;15.32;55.41
32251;BME280;41295;48.518;9.206;2023-05-24T03:35:39;97446.00;;;15.30;55.60
32251;BME280;41295;48.518;9.206;2023-05-24T03:37:41;97434.59;;;15.31;55.65
32251;BME280;41295;48.518;9.206;2023-05-24T03:39:45;97439.06;;;15.29;55.68
32251;BME280;41295;48.518;9.206;2023-05-24T03:41:48;97440.84;;;15.28;55.87
32251;BME280;41295;48.518;9.206;2023-05-24T03:43:50;97440.94;;;15.26;56.03
32251;BME280;41295;48.518;9.206;2023-05-24T03:45:53;97437.53;;;15.24;55.81
32251;BME280;41295;48.518;9.206;2023-05-24T03:47:56;97440.25;;;15.23;55.93
32251;BME280;41295;48.518;9.206;2023-05-24T03:49:59;97447.28;;;15.22;56.02
32251;BME280;41295;48.518;9.206;2023-05-24T03:52:02;97453.38;;;15.23;55.99
32251;BME280;41295;48.518;9.206;2023-05-24T03:54:05;97453.03;;;15.13;54.79
32251;BME280;41295;48.518;9.206;2023-05-24T03:56:09;97448.56;;;15.15;56.03
32251;BME280;41295;48.518;9.206;2023-05-24T03:58:11;97449.56;;;15.12;56.15
32251;BME280;41295;48.518;9.206;2023-05-24T04:00:14;97451.31;;;15.12;56.38
32251;BME280;41295;48.518;9.206;2023-05-24T04:02:17;97455.66;;;15.13;56.32
32251;BME280;41295;48.518;9.206;2023-05-24T04:04:20;97452.19;;;15.12;56.50
32251;BME280;41295;48.518;9.206;2023-05-24T04:06:22;97454.81;;;15.12;56.40
32251;BME280;41295;48.518;9.206;2023-05-24T04:08:29;97460.63;;;15.01;56.25
32251;BME280;41295;48.518;9.206;2023-05-24T04:10:32;97452.84;;;15.00;56.69
32251;BME280;41295;48.518;9.206;2023-05-24T04:12:36;97453.78;;;14.99;56.63
32251;BME280;41295;48.518;9.206;2023-05-24T04:14:40;97455.53;;;14.98;56.64
32251;BME280;41295;48.518;9.206;2023-05-24T04:16:42;97451.91;;;15.01;56.41
32251;BME280;41295;48.518;9.206;2023-05-24T04:18:45;97458.09;;;15.00;56.33
32251;BME280;41295;48.518;9.206;2023-05-24T04:20:48;97456.41;;;14.99;56.60
32251;BME280;41295;48.518;9.206;2023-05-24T04:22:51;97451.91;;;15.01;56.61
32251;BME280;41295;48.518;9.206;2023-05-24T04:24:54;97455.38;;;15.01;56.62
32251;BME280;41295;48.518;9.206;2023-05-24T04:26:56;97453.69;;;15.00;56.66
32251;BME280;41295;48.518;9.206;2023-05-24T04:29:00;97454.47;;;15.02;56.63
32251;BME280;41295;48.518;9.206;2023-05-24T04:31:04;97450.97;;;15.02;56.56
32251;BME280;41295;48.518;9.206;2023-05-24T04:33:07;97457.09;;;15.02;56.53
32251;BME280;41295;48.518;9.206;2023-05-24T04:35:10;97453.53;;;15.03;56.49
32251;BME280;41295;48.518;9.206;2023-05-24T04:37:13;97458.59;;;15.07;56.57
32251;BME280;41295;48.518;9.206;2023-05-24T04:39:17;97452.66;;;15.03;56.77
32251;BME280;41295;48.518;9.206;2023-05-24T04:41:20;97449.97;;;15.05;56.87
32251;BME280;41295;48.518;9.206;2023-05-24T04:43:24;97451.66;;;15.06;57.00
32251;BME280;41295;48.518;9.206;2023-05-24T04:45:29;97445.97;;;14.97;56.31
32251;BME280;41295;48.518;9.206;2023-05-24T04:47:33;97451.16;;;14.99;56.99
32251;BME280;41295;48.518;9.206;2023-05-24T04:49:36;97446.81;;;14.98;57.37
32251;BME280;41295;48.518;9.206;2023-05-24T04:51:39;97444.19;;;14.98;57.48
32251;BME280;41295;48.518;9.206;2023-05-24T04:53:41;97440.72;;;14.97;57.44
32251;BME280;41295;48.518;9.206;2023-05-24T04:55:44;97445.03;;;14.98;57.46
32251;BME280;41295;48.518;9.206;2023-05-24T04:57:47;97449.34;;;14.99;57.57
32251;BME280;41295;48.518;9.206;2023-05-24T04:59:49;97441.47;;;14.99;57.70
32251;BME280;41295;48.518;9.206;2023-05-24T05:01:53;97438.94;;;14.98;57.60
32251;BME280;41295;48.518;9.206;2023-05-24T05:03:56;97437.16;;;14.98;57.37
32251;BME280;41295;48.518;9.206;2023-05-24T05:05:59;97444.09;;;14.99;57.46
32251;BME280;41295;48.518;9.206;2023-05-24T05:08:02;97444.09;;;14.99;57.78
32251;BME280;41295;48.518;9.206;2023-05-24T05:10:06;97443.19;;;15.00;58.01
32251;BME280;41295;48.518;9.206;2023-05-24T05:12:09;97447.59;;;15.00;57.67
32251;BME280;41295;48.518;9.206;2023-05-24T05:14:11;97446.63;;;15.01;58.08
32251;BME280;41295;48.518;9.206;2023-05-24T05:16:14;97450.13;;;15.01;58.06
32251;BME280;41295;48.518;9.206;2023-05-24T05:18:18;97454.53;;;15.01;57.90
32251;BME280;41295;48.518;9.206;2023-05-24T05:20:21;97463.25;;;15.01;58.05
32251;BME280;41295;48.518;9.206;2023-05-24T05:22:24;97453.59;;;15.02;58.13
32251;BME280;41295;48.518;9.206;2023-05-24T05:24:27;97462.34;;;15.02;57.95
32251;BME280;41295;48.518;9.206;2023-05-24T05:26:29;97467.50;;;15.04;58.11
32251;BME280;41295;48.518;9.206;2023-05-24T05:28:32;97468.41;;;15.03;58.26
32251;BME280;41295;48.518;9.206;2023-05-24T05:30:35;97474.53;;;15.03;57.87
32251;BME280;41295;48.518;9.206;2023-05-24T05:32:38;97464.88;;;15.04;57.84
32251;BME280;41295;48.518;9.206;2023-05-24T05:34:42;97460.97;;;14.95;57.80
32251;BME280;41295;48.518;9.206;2023-05-24T05:36:45;97463.59;;;14.95;58.21
32251;BME280;41295;48.518;9.206;2023-05-24T05:38:47;97464.41;;;14.96;57.87
32251;BME280;41295;48.518;9.206;2023-05-24T05:40:50;97467.91;;;14.96;57.83
32251;BME280;41295;48.518;9.206;2023-05-24T05:42:53;97469.59;;;14.97;57.79
32251;BME280;41295;48.518;9.206;2023-05-24T05:44:56;97471.38;;;14.97;57.55
32251;BME280;41295;48.518;9.206;2023-05-24T05:46:58;97474.84;;;14.97;57.21
32251;BME280;41295;48.518;9.206;2023-05-24T05:49:01;97469.59;;;14.97;57.19
32251;BME280;41295;48.518;9.206;2023-05-24T05:51:05;97466.97;;;14.97;57.25
32251;BME280;41295;48.518;9.206;2023-05-24T05:53:07;97465.28;;;14.96;56.92
32251;BME280;41295;48.518;9.206;2023-05-24T05:55:10;97466.31;;;14.94;56.77
32251;BME280;41295;48.518;9.206;2023-05-24T05:57:15;97469.84;;;14.93;56.91
32251;BME280;41295;48.518;9.206;2023-05-24T05:59:20;97473.31;;;14.93;57.04
32251;BME280;41295;48.518;9.206;2023-05-24T06:01:22;97472.47;;;14.93;56.94
32251;BME280;41295;48.518;9.206;2023-05-24T06:03:25;97473.31;;;14.93;57.19
32251;BME280;41295;48.518;9.206;2023-05-24T06:05:28;97473.41;;;14.91;57.35
32251;BME280;41295;48.518;9.206;2023-05-24T06:07:32;97475.09;;;14.93;57.45
32251;BME280;41295;48.518;9.206;2023-05-24T06:09:36;97474.19;;;14.94;57.42
32251;BME280;41295;48.518;9.206;2023-05-24T06:11:38;97483.66;;;14.96;57.33
32251;BME280;41295;48.518;9.206;2023-05-24T06:13:45;97474.84;;;14.97;57.28
32251;BME280;41295;48.518;9.206;2023-05-24T06:15:47;97475.69;;;14.98;56.57
32251;BME280;41295;48.518;9.206;2023-05-24T06:17:50;97470.44;;;14.98;56.57
32251;BME280;41295;48.518;9.206;2023-05-24T06:19:53;97467.91;;;14.96;56.45
32251;BME280;41295;48.518;9.206;2023-05-24T06:21:56;97470.69;;;14.93;56.22
32251;BME280;41295;48.518;9.206;2023-05-24T06:24:00;97474.31;;;14.90;56.83
32251;BME280;41295;48.518;9.206;2023-05-24T06:26:03;97476.03;;;14.91;57.30
32251;BME280;41295;48.518;9.206;2023-05-24T06:28:06;97477.72;;;14.93;57.35
32251;BME280;41295;48.518;9.206;2023-05-24T06:30:09;97469.94;;;14.91;57.62
32251;BME280;41295;48.518;9.206;2023-05-24T06:32:12;97467.38;;;14.89;57.65
32251;BME280;41295;48.518;9.206;2023-05-24T06:34:14;97477.34;;;14.83;57.84
32251;BME280;41295;48.518;9.206;2023-05-24T06:36:18;97471.84;;;14.87;57.67
32251;BME280;41295;48.518;9.206;2023-05-24T06:38:20;97480.72;;;14.85;57.99
32251;BME280;41295;48.518;9.206;2023-05-24T06:40:24;97478.88;;;14.87;58.43
32251;BME280;41295;48.518;9.206;2023-05-24T06:42:27;97474.31;;;14.90;58.40
32251;BME280;41295;48.518;9.206;2023-05-24T06:44:29;97475.94;;;14.93;57.99
32251;BME280;41295;48.518;9.206;2023-05-24T06:46:34;97472.28;;;14.96;57.43
32251;BME280;41295;48.518;9.206;2023-05-24T06:48:37;97479.25;;;14.97;57.22
32251;BME280;41295;48.518;9.206;2023-05-24T06:50:40;97480.88;;;14.99;57.49
32251;BME280;41295;48.518;9.206;2023-05-24T06:52:44;97481.63;;;15.01;57.58
32251;BME280;41295;48.518;9.206;2023-05-24T06:54:48;97484.19;;;15.03;57.43
32251;BME280;41295;48.518;9.206;2023-05-24T06:56:51;97486.72;;;15.05;57.33
32251;BME280;41295;48.518;9.206;2023-05-24T06:58:54;97488.44;;;15.06;57.01
32251;BME280;41295;48.518;9.206;2023-05-24T07:00:57;97489.22;;;15.08;56.82
32251;BME280;41295;48.518;9.206;2023-05-24T07:03:00;97488.25;;;15.09;56.58
32251;BME280;41295;48.518;9.206;2023-05-24T07:05:03;97494.38;;;15.09;56.30
32251;BME280;41295;48.518;9.206;2023-05-24T07:07:07;97496.06;;;15.10;56.62
32251;BME280;41295;48.518;9.206;2023-05-24T07:09:13;97496.13;;;15.09;56.15
32251;BME280;41295;48.518;9.206;2023-05-24T07:11:16;97496.91;;;15.11;56.19
32251;BME280;41295;48.518;9.206;2023-05-24T07:13:20;97490.81;;;15.10;56.35
32251;BME280;41295;48.518;9.206;2023-05-24T07:15:23;97489.94;;;15.10;55.93
32251;BME280;41295;48.518;9.206;2023-05-24T07:17:25;97502.25;;;15.09;56.07
32251;BME280;41295;48.518;9.206;2023-05-24T07:19:28;97498.69;;;15.10;55.95
32251;BME280;41295;48.518;9.206;2023-05-24T07:21:31;97498.75;;;15.09;55.77
32251;BME280;41295;48.518;9.206;2023-05-24T07:23:33;97498.75;;;15.09;56.25
32251;BME280;41295;48.518;9.206;2023-05-24T07:25:37;97502.56;;;15.03;54.77
32251;BME280;41295;48.518;9.206;2023-05-24T07:27:40;97503.34;;;15.05;55.44
32251;BME280;41295;48.518;9.206;2023-05-24T07:29:44;97503.16;;;15.08;55.69
32251;BME280;41295;48.518;9.206;2023-05-24T07:31:48;97503.06;;;15.10;55.86
32251;BME280;41295;48.518;9.206;2023-05-24T07:33:51;97508.28;;;15.11;55.64
32251;BME280;41295;48.518;9.206;2023-05-24T07:35:54;97507.34;;;15.12;55.48
32251;BME280;41295;48.518;9.206;2023-05-24T07:37:56;97509.78;;;15.15;55.36
32251;BME280;41295;48.518;9.206;2023-05-24T07:39:59;97514.13;;;15.17;55.51
32251;BME280;41295;48.518;9.206;2023-05-24T07:42:02;97514.13;;;15.17;55.61
32251;BME280;41295;48.518;9.206;2023-05-24T07:44:04;97518.44;;;15.18;55.61
32251;BME280;41295;48.518;9.206;2023-05-24T07:46:08;97514.91;;;15.19;55.72
32251;BME280;41295;48.518;9.206;2023-05-24T07:48:11;97520.16;;;15.19;55.61
32251;BME280;41295;48.518;9.206;2023-05-24T07:50:14;97524.38;;;15.21;55.83
32251;BME280;41295;48.518;9.206;2023-05-24T07:52:17;97526.16;;;15.21;55.26
32251;BME280;41295;48.518;9.206;2023-05-24T07:54:20;97527.00;;;15.21;55.47
32251;BME280;41295;48.518;9.206;2023-05-24T07:56:23;97529.97;;;15.15;54.57
32251;BME280;41295;48.518;9.206;2023-05-24T07:58:25;97530.72;;;15.17;55.14
32251;BME280;41295;48.518;9.206;2023-05-24T08:00:28;97527.25;;;15.17;54.98
32251;BME280;41295;48.518;9.206;2023-05-24T08:02:32;97534.19;;;15.18;54.80
32251;BME280;41295;48.518;9.206;2023-05-24T08:04:35;97535.91;;;15.19;55.06
32251;BME280;41295;48.518;9.206;2023-05-24T08:06:38;97536.91;;;15.16;54.47
32251;BME280;41295;48.518;9.206;2023-05-24T08:08:40;97542.25;;;15.14;54.19
32251;BME280;41295;48.518;9.206;2023-05-24T08:10:43;97543.94;;;15.15;54.51
32251;BME280;41295;48.518;9.206;2023-05-24T08:12:48;97546.91;;;15.09;54.24
32251;BME280;41295;48.518;9.206;2023-05-24T08:14:51;97536.31;;;15.11;54.71
32251;BME280;41295;48.518;9.206;2023-05-24T08:16:54;97549.00;;;15.02;55.52
32251;BME280;41295;48.518;9.206;2023-05-24T08:18:58;97552.63;;;15.00;55.80
32251;BME280;41295;48.518;9.206;2023-05-24T08:21:01;97549.81;;;15.03;55.55
32251;BME280;41295;48.518;9.206;2023-05-24T08:23:03;97548.75;;;15.07;55.74
32251;BME280;41295;48.518;9.206;2023-05-24T08:25:07;97553.91;;;15.09;56.04
32251;BME280;41295;48.518;9.206;2023-05-24T08:27:10;97560.19;;;15.06;55.29
32251;BME280;41295;48.518;9.206;2023-05-24T08:29:12;97560.19;;;15.06;55.49
32251;BME280;41295;48.518;9.206;2023-05-24T08:31:17;97562.81;;;15.06;55.49
32251;BME280;41295;48.518;9.206;2023-05-24T08:33:21;97566.44;;;15.03;55.12
32251;BME280;41295;48.518;9.206;2023-05-24T08:35:25;97569.84;;;15.06;55.45
32251;BME280;41295;48.518;9.206;2023-05-24T08:37:28;97562.03;;;15.04;55.48
32251;BME280;41295;48.518;9.206;2023-05-24T08:39:32;97561.09;;;15.05;55.62
32251;BME280;41295;48.518;9.206;2023-05-24T08:41:34;97565.50;;;15.05;55.87
32251;BME280;41295;48.518;9.206;2023-05-24T08:43:38;97570.69;;;15.06;56.02
32251;BME280;41295;48.518;9.206;2023-05-24T08:45:41;97563.66;;;15.07;56.24
32251;BME280;41295;48.518;9.206;2023-05-24T08:47:45;97565.50;;;15.05;56.48
32251;BME280;41295;48.518;9.206;2023-05-24T08:49:49;97560.25;;;15.05;56.71
32251;BME280;41295;48.518;9.206;2023-05-24T08:51:54;97565.50;;;15.05;56.87
32251;BME280;41295;48.518;9.206;2023-05-24T08:53:57;97564.66;;;15.04;56.29
32251;BME280;41295;48.518;9.206;2023-05-24T08:56:01;97571.59;;;15.05;56.35
32251;BME280;41295;48.518;9.206;2023-05-24T08:58:05;97578.50;;;14.90;56.45
32251;BME280;41295;48.518;9.206;2023-05-24T09:00:09;97573.25;;;14.90;56.88
32251;BME280;41295;48.518;9.206;2023-05-24T09:02:14;97571.44;;;14.90;56.70
32251;BME280;41295;48.518;9.206;2023-05-24T09:04:18;97569.06;;;14.86;56.48
32251;BME280;41295;48.518;9.206;2023-05-24T09:06:21;97571.53;;;14.89;56.82
32251;BME280;41295;48.518;9.206;2023-05-24T09:08:27;97573.47;;;14.85;56.26
32251;BME280;41295;48.518;9.206;2023-05-24T09:10:32;97571.34;;;14.74;57.41
32251;BME280;41295;48.518;9.206;2023-05-24T09:12:56;97562.19;;;14.83;57.45
32251;BME280;41295;48.518;9.206;2023-05-24T09:14:59;97574.16;;;14.89;57.24
32251;BME280;41295;48.518;9.206;2023-05-24T09:17:02;97569.78;;;14.89;57.32
32251;BME280;41295;48.518;9.206;2023-05-24T09:19:05;97571.25;;;14.95;57.03
32251;BME280;41295;48.518;9.206;2023-05-24T09:21:09;97577.22;;;14.97;57.03
32251;BME280;41295;48.518;9.206;2023-05-24T09:23:12;97571.97;;;14.97;56.82
32251;BME280;41295;48.518;9.206;2023-05-24T09:25:20;97580.50;;;15.02;56.81
32251;BME280;41295;48.518;9.206;2023-05-24T09:27:26;97575.00;;;15.07;56.82
32251;BME280;41295;48.518;9.206;2023-05-24T09:29:29;97565.38;;;15.08;56.51
32251;BME280;41295;48.518;9.206;2023-05-24T09:31:32;97567.38;;;15.02;56.51
32251;BME280;41295;48.518;9.206;2023-05-24T09:33:35;97572.38;;;15.07;56.66
32251;BME280;41295;48.518;9.206;2023-05-24T09:35:40;97574.84;;;15.10;55.99
32251;BME280;41295;48.518;9.206;2023-05-24T09:37:45;97568.50;;;15.14;55.84
32251;BME280;41295;48.518;9.206;2023-05-24T09:39:49;97569.97;;;15.20;55.87
32251;BME280;41295;48.518;9.206;2023-05-24T09:41:53;97568.66;;;15.29;56.30
32251;BME280;41295;48.518;9.206;2023-05-24T09:43:57;97568.31;;;15.35;56.47
32251;BME280;41295;48.518;9.206;2023-05-24T09:46:01;97563.56;;;15.42;55.95
32251;BME280;41295;48.518;9.206;2023-05-24T09:48:09;97567.16;;;15.41;55.30
32251;BME280;41295;48.518;9.206;2023-05-24T09:50:14;97563.50;;;15.44;54.95
32251;BME280;41295;48.518;9.206;2023-05-24T09:52:18;97561.72;;;15.44;54.96
32251;BME280;41295;48.518;9.206;2023-05-24T09:54:20;97563.34;;;15.47;54.89
32251;BME280;41295;48.518;9.206;2023-05-24T09:56:23;97564.13;;;15.49;54.19
32251;BME280;41295;48.518;9.206;2023-05-24T09:58:30;97559.47;;;15.54;54.43
32251;BME280;41295;48.518;9.206;2023-05-24T10:00:35;97565.41;;;15.58;54.52
32251;BME280;41295;48.518;9.206;2023-05-24T10:02:41;97563.47;;;15.61;54.51
32251;BME280;41295;48.518;9.206;2023-05-24T10:04:57;97561.66;;;15.62;54.03
32251;BME280;41295;48.518;9.206;2023-05-24T10:07:00;97557.28;;;15.62;54.24
32251;BME280;41295;48.518;9.206;2023-05-24T10:09:04;97556.50;;;15.60;54.57
32251;BME280;41295;48.518;9.206;2023-05-24T10:11:08;97551.25;;;15.60;54.66
32251;BME280;41295;48.518;9.206;2023-05-24T10:13:11;97563.38;;;15.63;54.32
32251;BME280;41295;48.518;9.206;2023-05-24T10:15:17;97560.66;;;15.65;54.14
32251;BME280;41295;48.518;9.206;2023-05-24T10:17:20;97561.56;;;15.63;53.18
32251;BME280;41295;48.518;9.206;2023-05-24T10:19:23;97559.97;;;15.61;52.29
32251;BME280;41295;48.518;9.206;2023-05-24T10:21:28;97553.88;;;15.60;52.52
32251;BME280;41295;48.518;9.206;2023-05-24T10:23:35;97557.66;;;15.55;52.40
32251;BME280;41295;48.518;9.206;2023-05-24T10:25:45;97554.03;;;15.57;53.08
32251;BME280;41295;48.518;9.206;2023-05-24T10:27:50;97561.94;;;15.57;53.43
32251;BME280;41295;48.518;9.206;2023-05-24T10:29:58;97561.94;;;15.57;53.39
32251;BME280;41295;48.518;9.206;2023-05-24T10:32:04;97564.63;;;15.56;53.22
32251;BME280;41295;48.518;9.206;2023-05-24T10:34:08;97563.88;;;15.54;53.45
32251;BME280;41295;48.518;9.206;2023-05-24T10:36:13;97567.44;;;15.53;53.71
32251;BME280;41295;48.518;9.206;2023-05-24T10:38:19;97556.25;;;15.49;53.65
32251;BME280;41295;48.518;9.206;2023-05-24T10:40:22;97561.56;;;15.47;53.62
32251;BME280;41295;48.518;9.206;2023-05-24T10:42:29;97559.00;;;15.46;53.26
32251;BME280;41295;48.518;9.206;2023-05-24T10:44:32;97559.94;;;15.45;53.09
32251;BME280;41295;48.518;9.206;2023-05-24T10:46:35;97557.31;;;15.45;52.84
32251;BME280;41295;48.518;9.206;2023-05-24T10:48:40;97564.25;;;15.46;53.03
32251;BME280;41295;48.518;9.206;2023-05-24T10:50:43;97559.94;;;15.45;52.70
32251;BME280;41295;48.518;9.206;2023-05-24T10:52:47;97561.72;;;15.44;52.72
32251;BME280;41295;48.518;9.206;2023-05-24T10:55:03;97562.75;;;15.42;52.74
32251;BME280;41295;48.518;9.206;2023-05-24T10:57:06;97568.00;;;15.42;53.20
32251;BME280;41295;48.518;9.206;2023-05-24T10:59:21;97564.81;;;15.35;53.08